sensor_id;sensor_type;location;lat;lon;timestamp;pressure;altitude;pressure_sealevel;temperature;humidity
47712;BME280;57457;51.634;5.886;2023-07-24T00:05:00;100200;;;18.9;87.8
47712;BME280;57457;51.634;5.886;2023-07-24T00:18:20;100200;;;19.0;87.7
47712;BME280;57457;51.634;5.886;2023-07-24T00:31:40;100200;;;19.0;87.5
47712;BME280;57457;51.634;5.886;2023-07-24T00:44:59;100200;;;19.0;87.4
47712;BME280;57457;51.634;5.886;2023-07-24T00:58:19;100200;;;18.9;87.4
47712;BME280;57457;51.634;5.886;2023-07-24T01:11:39;100200;;;18.9;87.4
47712;BME280;57457;51.634;5.886;2023-07-24T01:51:38;100100;;;18.9;87.6
47712;BME280;57457;51.634;5.886;2023-07-24T02:04:58;100100;;;18.9;87.6
47712;BME280;57457;51.634;5.886;2023-07-24T02:18:18;100100;;;18.9;87.8
47712;BME280;57457;51.634;5.886;2023-07-24T02:31:38;100100;;;18.9;87.9
47712;BME280;57457;51.634;5.886;2023-07-24T02:44:58;100100;;;18.9;87.9
47712;BME280;57457;51.634;5.886;2023-07-24T02:58:18;100100;;;18.9;87.8
47712;BME280;57457;51.634;5.886;2023-07-24T03:11:37;100100;;;19.0;87.7
47712;BME280;57457;51.634;5.886;2023-07-24T03:24:57;100100;;;19.0;87.7
47712;BME280;57457;51.634;5.886;2023-07-24T03:38:17;100100;;;19.0;87.6
47712;BME280;57457;51.634;5.886;2023-07-24T03:51:37;100000;;;18.9;87.7
47712;BME280;57457;51.634;5.886;2023-07-24T04:04:57;100000;;;18.8;87.7
47712;BME280;57457;51.634;5.886;2023-07-24T04:18:16;100000;;;18.7;87.7
47712;BME280;57457;51.634;5.886;2023-07-24T04:31:36;100000;;;18.7;87.4
47712;BME280;57457;51.634;5.886;2023-07-24T04:44:56;100000;;;18.5;87.0
47712;BME280;57457;51.634;5.886;2023-07-24T04:58:16;100000;;;18.3;87.0
47712;BME280;57457;51.634;5.886;2023-07-24T05:11:36;100100;;;18.1;87.3
47712;BME280;57457;51.634;5.886;2023-07-24T05:24:55;100100;;;18.0;87.6
47712;BME280;57457;51.634;5.886;2023-07-24T05:38:15;100100;;;17.9;87.9
47712;BME280;57457;51.634;5.886;2023-07-24T06:04:55;100100;;;18.0;88.0
47712;BME280;57457;51.634;5.886;2023-07-24T06:18:15;100100;;;18.0;88.1
47712;BME280;57457;51.634;5.886;2023-07-24T06:31:35;100100;;;18.1;88.0
47712;BME280;57457;51.634;5.886;2023-07-24T06:44:54;100100;;;18.2;87.9
47712;BME280;57457;51.634;5.886;2023-07-24T06:58:14;100100;;;18.3;87.6
47712;BME280;57457;51.634;5.886;2023-07-24T07:11:34;100100;;;18.4;87.7
47712;BME280;57457;51.634;5.886;2023-07-24T07:24:54;100100;;;18.6;86.5
47712;BME280;57457;51.634;5.886;2023-07-24T07:38:14;100100;;;18.7;86.4
47712;BME280;57457;51.634;5.886;2023-07-24T07:51:33;100100;;;18.8;86.4
47712;BME280;57457;51.634;5.886;2023-07-24T08:18:13;100100;;;18.9;86.7
47712;BME280;57457;51.634;5.886;2023-07-24T08:31:33;100100;;;19.0;85.8
47712;BME280;57457;51.634;5.886;2023-07-24T08:44:53;100100;;;19.3;84.0
47712;BME280;57457;51.634;5.886;2023-07-24T09:11:32;100100;;;19.7;82.6
47712;BME280;57457;51.634;5.886;2023-07-24T09:24:52;100100;;;19.8;83.0
47712;BME280;57457;51.634;5.886;2023-07-24T09:38:12;100100;;;19.8;82.9
47712;BME280;57457;51.634;5.886;2023-07-24T09:51:32;100000;;;20.3;79.6
47712;BME280;57457;51.634;5.886;2023-07-24T10:04:51;100000;;;21.2;78.3
47712;BME280;57457;51.634;5.886;2023-07-24T10:18:11;100000;;;21.6;79.2
47712;BME280;57457;51.634;5.886;2023-07-24T10:31:31;100000;;;21.6;80.3
47712;BME280;57457;51.634;5.886;2023-07-24T10:44:51;100000;;;21.4;80.9
47712;BME280;57457;51.634;5.886;2023-07-24T10:58:11;100000;;;21.1;81.4
47712;BME280;57457;51.634;5.886;2023-07-24T11:24:50;100000;;;20.5;82.4
47712;BME280;57457;51.634;5.886;2023-07-24T11:38:10;100000;;;20.4;81.4
47712;BME280;57457;51.634;5.886;2023-07-24T11:51:30;100000;;;20.6;79.4
47712;BME280;57457;51.634;5.886;2023-07-24T12:04:50;100000;;;21.0;76.5
47712;BME280;57457;51.634;5.886;2023-07-24T12:18:10;100000;;;21.5;77.3
47712;BME280;57457;51.634;5.886;2023-07-24T12:31:29;100000;;;21.7;77.2
47712;BME280;57457;51.634;5.886;2023-07-24T12:44:49;100000;;;21.8;76.6
47712;BME280;57457;51.634;5.886;2023-07-24T12:58:09;100000;;;21.9;78.0
47712;BME280;57457;51.634;5.886;2023-07-24T13:11:29;100000;;;22.2;77.3
47712;BME280;57457;51.634;5.886;2023-07-24T13:24:49;100000;;;22.4;75.0
47712;BME280;57457;51.634;5.886;2023-07-24T13:38:08;99900;;;22.5;78.7
47712;BME280;57457;51.634;5.886;2023-07-24T14:04:48;99900;;;23.2;74.4
47712;BME280;57457;51.634;5.886;2023-07-24T14:18:08;99900;;;23.1;76.8
47712;BME280;57457;51.634;5.886;2023-07-24T14:31:28;100000;;;22.7;78.6
47712;BME280;57457;51.634;5.886;2023-07-24T14:44:47;100000;;;22.1;81.1
47712;BME280;57457;51.634;5.886;2023-07-24T14:58:07;100000;;;20.9;82.8
47712;BME280;57457;51.634;5.886;2023-07-24T15:11:27;100000;;;19.9;81.0
47712;BME280;57457;51.634;5.886;2023-07-24T15:24:47;100000;;;20.1;81.2
47712;BME280;57457;51.634;5.886;2023-07-24T15:38:07;100000;;;21.0;75.6
47712;BME280;57457;51.634;5.886;2023-07-24T15:51:27;100000;;;22.2;77.1
47712;BME280;57457;51.634;5.886;2023-07-24T16:18:06;100000;;;21.9;82.3
47712;BME280;57457;51.634;5.886;2023-07-24T16:31:26;100000;;;20.9;83.7
47712;BME280;57457;51.634;5.886;2023-07-24T16:44:46;100000;;;20.2;84.1
47712;BME280;57457;51.634;5.886;2023-07-24T16:58:06;100000;;;19.7;84.6
47712;BME280;57457;51.634;5.886;2023-07-24T17:11:25;100100;;;19.4;84.7
47712;BME280;57457;51.634;5.886;2023-07-24T17:24:45;100100;;;19.5;84.7
47712;BME280;57457;51.634;5.886;2023-07-24T17:38:05;100100;;;19.5;85.5
47712;BME280;57457;51.634;5.886;2023-07-24T17:51:25;100100;;;19.6;83.2
47712;BME280;57457;51.634;5.886;2023-07-24T18:04:45;100100;;;19.4;83.0
47712;BME280;57457;51.634;5.886;2023-07-24T18:18:05;100100;;;19.1;83.2
47712;BME280;57457;51.634;5.886;2023-07-24T18:31:24;100200;;;18.6;83.5
47712;BME280;57457;51.634;5.886;2023-07-24T18:44:44;100200;;;18.2;83.8
47712;BME280;57457;51.634;5.886;2023-07-24T18:58:04;100200;;;17.9;84.1
47712;BME280;57457;51.634;5.886;2023-07-24T19:11:24;100200;;;17.6;83.5
47712;BME280;57457;51.634;5.886;2023-07-24T19:24:44;100200;;;17.3;83.6
47712;BME280;57457;51.634;5.886;2023-07-24T19:38:04;100200;;;17.0;83.9
47712;BME280;57457;51.634;5.886;2023-07-24T19:51:23;100300;;;16.8;84.3
47712;BME280;57457;51.634;5.886;2023-07-24T20:04:43;100300;;;16.6;84.9
47712;BME280;57457;51.634;5.886;2023-07-24T20:18:03;100300;;;16.5;85.4
47712;BME280;57457;51.634;5.886;2023-07-24T20:31:23;100300;;;16.4;85.5
47712;BME280;57457;51.634;5.886;2023-07-24T20:44:43;100300;;;16.4;85.9
47712;BME280;57457;51.634;5.886;2023-07-24T20:58:02;100400;;;16.4;85.8
47712;BME280;57457;51.634;5.886;2023-07-24T21:11:22;100400;;;16.4;85.6
47712;BME280;57457;51.634;5.886;2023-07-24T21:24:42;100400;;;16.4;85.7
47712;BME280;57457;51.634;5.886;2023-07-24T21:38:02;100400;;;16.3;85.9
47712;BME280;57457;51.634;5.886;2023-07-24T21:51:22;100400;;;16.3;86.0
47712;BME280;57457;51.634;5.886;2023-07-24T22:04:41;100400;;;16.3;85.6
47712;BME280;57457;51.634;5.886;2023-07-24T22:18:01;100400;;;16.2;85.7
47712;BME280;57457;51.634;5.886;2023-07-24T22:31:21;100400;;;16.0;85.7
47712;BME280;57457;51.634;5.886;2023-07-24T22:44:41;100400;;;15.7;85.9
47712;BME280;57457;51.634;5.886;2023-07-24T22:58:01;100400;;;15.4;86.0
47712;BME280;57457;51.634;5.886;2023-07-24T23:11:20;100400;;;15.1;86.3
47712;BME280;57457;51.634;5.886;2023-07-24T23:24:40;100400;;;14.8;86.6
47712;BME280;57457;51.634;5.886;2023-07-24T23:38:00;100400;;;14.5;86.8
47712;BME280;57457;51.634;5.886;2023-07-24T23:51:20;100400;;;14.3;86.8
